Time;durP1;ratioP1;P1;durP2;ratioP2;P2;SDS_P1;SDS_P2;PMS_P1;PMS_P2;Temp;Humidity;BMP_temperature;BMP_pressure;BME280_temperature;BME280_humidity;BME280_pressure;Samples;Min_cycle;Max_cycle;Signal;HPM_P1;HPM_P2
2022/08/09 00:01:09;;;;;;;;;;;;;;;;;;4887147;29;19935;-72
2022/08/09 00:03:40;;;;;;;;;;;;;;;;;;4886455;29;19938;-73
2022/08/09 00:06:27;;;;;;;;;;;;;;;;;;4899041;29;19999;-72
2022/08/09 00:08:55;;;;;;;;;;;;;;;;;;4890945;29;19938;-72
2022/08/09 00:11:23;;;;;;;;;;;;;;;;;;4891406;29;19979;-72
2022/08/09 00:13:53;;;;;;;;;;;;;;;;;;4889950;29;19927;-72
2022/08/09 00:16:22;;;;;;;;;;;;;;;;;;4889803;29;19938;-72
2022/08/09 00:18:52;;;;;;;;;;;;;;;;;;4892470;29;20403;-72
2022/08/09 00:21:20;;;;;;;;;;;;;;;;;;4890699;29;19935;-72
2022/08/09 00:23:47;;;;;;;;;;;;;;;;;;4887969;29;19991;-73
2022/08/09 00:26:24;;;;;;;;;;;;;;;;;;4890090;29;19931;-73
2022/08/09 00:28:58;;;;;;;;;;;;;;;;;;4895855;29;19931;-72
2022/08/09 00:31:25;;;;;;;;;;;;;;;;;;4902020;29;19942;-72
2022/08/09 00:34:12;;;;;;;;;;;;;;;;;;4910446;29;19931;-72
2022/08/09 00:36:40;;;;;;;;;;;;;;;;;;4883095;29;19939;-73
2022/08/09 00:39:08;;;;;;;;;;;;;;;;;;4886312;29;19932;-73
2022/08/09 00:41:42;;;;;;;;;;;;;;;;;;4891468;29;20376;-72
2022/08/09 00:44:30;;;;;;;;;;;;;;;;;;4883837;29;19958;-71
2022/08/09 00:46:57;;;;;;;;;;;;;;;;;;4889497;29;20041;-72
2022/08/09 00:49:31;;;;;;;;;;;;;;;;;;4893207;29;19954;-72
2022/08/09 00:51:58;;;;;;;;;;;;;;;;;;4890054;29;20257;-72
2022/08/09 00:54:28;;;;;;;;;;;;;;;;;;4886602;29;19938;-72
2022/08/09 00:57:01;;;;;;;;;;;;;;;;;;4887155;29;20535;-72
2022/08/09 00:59:28;;;;;;;;;;;;;;;;;;4890744;29;20311;-72
2022/08/09 01:02:07;;;;;;;;;;;;;;;;;;4876381;29;19927;-72
2022/08/09 01:04:35;;;;;;;;;;;;;;;;;;4888111;29;19938;-73
2022/08/09 01:07:02;;;;;;;;;;;;;;;;;;4892054;29;20417;-72
2022/08/09 01:09:29;;;;;;;;;;;;;;;;;;4919250;23;19932;-75
2022/08/09 01:12:03;;;;;;;;;;;;;;;;;;4874242;29;19943;-76
2022/08/09 01:14:30;;;;;;;;;;;;;;;;;;4901509;29;19939;-76
2022/08/09 01:16:57;;;;;;;;;;;;;;;;;;4902643;29;19962;-76
2022/08/09 01:19:26;;;;;;;;;;;;;;;;;;4902894;29;19966;-76
2022/08/09 01:22:06;;;;;;;;;;;;;;;;;;4885174;29;19932;-76
2022/08/09 01:24:38;;;;;;;;;;;;;;;;;;4886278;29;19939;-76
2022/08/09 01:27:06;;;;;;;;;;;;;;;;;;4899777;29;19963;-76
2022/08/09 01:29:34;;;;;;;;;;;;;;;;;;4882819;29;19931;-76
2022/08/09 01:32:07;;;;;;;;;;;;;;;;;;4897649;29;19962;-76
2022/08/09 01:34:54;;;;;;;;;;;;;;;;;;4904351;29;19971;-73
2022/08/09 01:37:22;;;;;;;;;;;;;;;;;;4906700;29;19947;-76
2022/08/09 01:40:09;;;;;;;;;;;;;;;;;;4919963;29;19927;-75
2022/08/09 01:42:36;;;;;;;;;;;;;;;;;;4906473;29;19928;-76
2022/08/09 01:45:03;;;;;;;;;;;;;;;;;;4906431;29;19931;-76
2022/08/09 01:47:34;;;;;;;;;;;;;;;;;;4908158;29;19943;-75
2022/08/09 01:50:11;;;;;;;;;;;;;;;;;;4916082;29;20002;-76
2022/08/09 01:52:38;;;;;;;;;;;;;;;;;;4914574;29;20062;-75
2022/08/09 01:55:07;;;;;;;;;;;;;;;;;;4913648;29;19935;-76
2022/08/09 01:57:36;;;;;;;;;;;;;;;;;;4911102;29;19956;-75
2022/08/09 02:00:06;;;;;;;;;;;;;;;;;;4910754;29;19931;-76
2022/08/09 02:02:53;;;;;;;;;;;;;;;;;;4902715;29;19932;-76
2022/08/09 02:05:21;;;;;;;;;;;;;;;;;;4906169;29;19938;-75
2022/08/09 02:08:06;;;;;;;;;;;;;;;;;;4906292;29;20412;-75
2022/08/09 02:10:53;;;;;;;;;;;;;;;;;;4907701;29;19935;-75
2022/08/09 02:13:21;;;;;;;;;;;;;;;;;;4906909;29;19927;-75
2022/08/09 02:15:52;;;;;;;;;;;;;;;;;;4907389;29;20022;-75
2022/08/09 02:18:20;;;;;;;;;;;;;;;;;;4904978;29;20247;-76
2022/08/09 02:20:48;;;;;;;;;;;;;;;;;;4903722;29;19935;-75
2022/08/09 02:23:15;;;;;;;;;;;;;;;;;;4907057;29;19928;-75
2022/08/09 02:25:43;;;;;;;;;;;;;;;;;;4906948;29;19938;-75
2022/08/09 02:28:19;;;;;;;;;;;;;;;;;;4905182;29;19928;-75
2022/08/09 02:30:46;;;;;;;;;;;;;;;;;;4903975;29;19932;-75
2022/08/09 02:33:13;;;;;;;;;;;;;;;;;;4907090;29;19937;-76
2022/08/09 02:35:43;;;;;;;;;;;;;;;;;;4907813;29;19986;-75
2022/08/09 02:38:27;;;;;;;;;;;;;;;;;;4904085;29;19931;-76
2022/08/09 02:40:55;;;;;;;;;;;;;;;;;;4907050;29;20042;-76
2022/08/09 02:43:23;;;;;;;;;;;;;;;;;;4906959;29;19942;-76
2022/08/09 02:45:50;;;;;;;;;;;;;;;;;;4902821;29;19931;-76
2022/08/09 02:48:17;;;;;;;;;;;;;;;;;;4905652;29;20062;-76
2022/08/09 02:50:45;;;;;;;;;;;;;;;;;;4904539;29;20018;-76
2022/08/09 02:53:12;;;;;;;;;;;;;;;;;;4904809;29;20498;-76
2022/08/09 02:55:43;;;;;;;;;;;;;;;;;;4907673;29;19923;-76
2022/08/09 02:58:20;;;;;;;;;;;;;;;;;;4905796;29;20326;-76
2022/08/09 03:01:02;;;;;;;;;;;;;;;;;;4897014;29;20396;-76
2022/08/09 03:03:30;;;;;;;;;;;;;;;;;;4899548;29;19928;-77
2022/08/09 03:06:18;;;;;;;;;;;;;;;;;;4906671;29;19932;-76
2022/08/09 03:08:45;;;;;;;;;;;;;;;;;;4904188;29;19928;-76
2022/08/09 03:11:12;;;;;;;;;;;;;;;;;;4907330;29;19938;-77
2022/08/09 03:13:39;;;;;;;;;;;;;;;;;;4908122;29;19928;-76
2022/08/09 03:16:10;;;;;;;;;;;;;;;;;;4906268;29;19936;-76
2022/08/09 03:18:37;;;;;;;;;;;;;;;;;;4913734;29;19926;-76
2022/08/09 03:21:04;;;;;;;;;;;;;;;;;;4915628;29;19920;-75
2022/08/09 03:23:32;;;;;;;;;;;;;;;;;;4911889;29;19931;-76
2022/08/09 03:25:59;;;;;;;;;;;;;;;;;;4912677;29;19966;-76
2022/08/09 03:28:31;;;;;;;;;;;;;;;;;;4908650;29;19931;-76
2022/08/09 03:30:58;;;;;;;;;;;;;;;;;;4909277;29;19938;-75
2022/08/09 03:33:25;;;;;;;;;;;;;;;;;;4907497;29;19931;-76
2022/08/09 03:35:52;;;;;;;;;;;;;;;;;;4905610;29;19932;-76
2022/08/09 03:38:40;;;;;;;;;;;;;;;;;;4906634;29;19983;-76
2022/08/09 03:41:09;;;;;;;;;;;;;;;;;;4904258;29;19932;-76
2022/08/09 03:43:36;;;;;;;;;;;;;;;;;;4905792;29;20416;-76
2022/08/09 03:46:03;;;;;;;;;;;;;;;;;;4907245;29;19977;-76
2022/08/09 03:48:51;;;;;;;;;;;;;;;;;;4906782;29;19928;-76
2022/08/09 03:51:18;;;;;;;;;;;;;;;;;;4904792;29;20058;-76
2022/08/09 03:54:05;;;;;;;;;;;;;;;;;;4901223;29;20246;-76
2022/08/09 03:56:37;;;;;;;;;;;;;;;;;;4903447;29;19932;-76
2022/08/09 03:59:04;;;;;;;;;;;;;;;;;;4908996;29;19994;-76
2022/08/09 04:01:33;;;;;;;;;;;;;;;;;;4907239;29;19934;-76
2022/08/09 04:04:00;;;;;;;;;;;;;;;;;;4909259;29;19935;-76
2022/08/09 04:06:31;;;;;;;;;;;;;;;;;;4909225;29;19955;-75
2022/08/09 04:09:02;;;;;;;;;;;;;;;;;;4908265;29;19932;-76
2022/08/09 04:11:29;;;;;;;;;;;;;;;;;;4909632;29;20106;-77
2022/08/09 04:13:56;;;;;;;;;;;;;;;;;;4910994;29;20001;-76
2022/08/09 04:16:44;;;;;;;;;;;;;;;;;;4921058;29;19970;-76
2022/08/09 04:19:12;;;;;;;;;;;;;;;;;;4903217;29;20015;-76
2022/08/09 04:21:44;;;;;;;;;;;;;;;;;;4912458;29;20013;-76
2022/08/09 04:24:11;;;;;;;;;;;;;;;;;;4899672;29;20006;-77
2022/08/09 04:26:38;;;;;;;;;;;;;;;;;;4898982;29;19937;-76
2022/08/09 04:29:06;;;;;;;;;;;;;;;;;;4903411;29;19942;-76
2022/08/09 04:31:39;;;;;;;;;;;;;;;;;;4901413;29;19935;-77
2022/08/09 04:34:13;;;;;;;;;;;;;;;;;;4904065;29;19947;-77
2022/08/09 04:36:45;;;;;;;;;;;;;;;;;;4900969;29;19932;-76
2022/08/09 04:39:16;;;;;;;;;;;;;;;;;;4900603;29;19932;-77
2022/08/09 04:41:44;;;;;;;;;;;;;;;;;;4898402;29;19935;-76
2022/08/09 04:44:11;;;;;;;;;;;;;;;;;;4896070;29;19940;-77
2022/08/09 04:46:40;;;;;;;;;;;;;;;;;;4899069;29;19959;-76
2022/08/09 04:49:24;;;;;;;;;;;;;;;;;;4906922;29;20011;-76
2022/08/09 04:51:56;;;;;;;;;;;;;;;;;;4899336;29;19932;-76
2022/08/09 04:54:24;;;;;;;;;;;;;;;;;;4901679;29;19931;-76
2022/08/09 04:56:51;;;;;;;;;;;;;;;;;;4898760;29;20419;-76
2022/08/09 04:59:18;;;;;;;;;;;;;;;;;;4898840;29;20028;-77
2022/08/09 05:01:47;;;;;;;;;;;;;;;;;;4900084;29;19935;-76
2022/08/09 05:04:14;;;;;;;;;;;;;;;;;;4900133;29;19942;-76
2022/08/09 05:06:42;;;;;;;;;;;;;;;;;;4900279;29;19980;-76
2022/08/09 05:09:10;;;;;;;;;;;;;;;;;;4899659;29;20504;-76
2022/08/09 05:11:38;;;;;;;;;;;;;;;;;;4895543;29;19969;-76
2022/08/09 05:14:05;;;;;;;;;;;;;;;;;;4900378;29;19931;-76
2022/08/09 05:16:33;;;;;;;;;;;;;;;;;;4904993;29;19960;-76
2022/08/09 05:19:00;;;;;;;;;;;;;;;;;;4906015;29;19928;-75
2022/08/09 05:21:29;;;;;;;;;;;;;;;;;;4902191;29;20006;-75
2022/08/09 05:24:02;;;;;;;;;;;;;;;;;;4908559;29;19934;-78
2022/08/09 05:26:31;;;;;;;;;;;;;;;;;;4904611;29;20224;-76
2022/08/09 05:29:12;;;;;;;;;;;;;;;;;;4907561;29;19932;-75
2022/08/09 05:31:44;;;;;;;;;;;;;;;;;;4905623;29;19931;-75
2022/08/09 05:34:14;;;;;;;;;;;;;;;;;;4902323;29;19931;-75
2022/08/09 05:36:43;;;;;;;;;;;;;;;;;;4900239;29;20393;-76
2022/08/09 05:39:13;;;;;;;;;;;;;;;;;;4905697;29;20419;-74
2022/08/09 05:41:55;;;;;;;;;;;;;;;;;;4904352;29;19981;-76
2022/08/09 05:44:22;;;;;;;;;;;;;;;;;;4904832;29;19962;-76
2022/08/09 05:46:56;;;;;;;;;;;;;;;;;;4905547;29;20138;-76
2022/08/09 05:49:24;;;;;;;;;;;;;;;;;;4904050;29;20050;-76
2022/08/09 05:52:11;;;;;;;;;;;;;;;;;;4897977;29;19928;-75
2022/08/09 05:54:38;;;;;;;;;;;;;;;;;;4902260;29;22094;-76
2022/08/09 05:57:06;;;;;;;;;;;;;;;;;;4896058;29;19932;-76
2022/08/09 05:59:33;;;;;;;;;;;;;;;;;;4892176;29;19932;-76
2022/08/09 06:02:00;;;;;;;;;;;;;;;;;;4889478;29;19931;-76
2022/08/09 06:04:28;;;;;;;;;;;;;;;;;;4888472;29;19931;-76
2022/08/09 06:07:01;;;;;;;;;;;;;;;;;;4899230;29;19967;-75
2022/08/09 06:09:28;;;;;;;;;;;;;;;;;;4898010;29;19935;-75
2022/08/09 06:12:15;;;;;;;;;;;;;;;;;;4896429;29;19936;-75
2022/08/09 06:14:43;;;;;;;;;;;;;;;;;;4899875;29;19931;-74
2022/08/09 06:17:10;;;;;;;;;;;;;;;;;;4905523;29;19983;-75
2022/08/09 06:19:38;;;;;;;;;;;;;;;;;;4907859;29;19927;-75
2022/08/09 06:22:05;;;;;;;;;;;;;;;;;;4907539;29;19998;-75
2022/08/09 06:24:32;;;;;;;;;;;;;;;;;;4883921;29;20159;-74
2022/08/09 06:27:00;;;;;;;;;;;;;;;;;;4898635;29;20022;-74
2022/08/09 06:29:27;;;;;;;;;;;;;;;;;;4900191;29;20451;-73
2022/08/09 06:31:54;;;;;;;;;;;;;;;;;;4898350;29;19985;-74
2022/08/09 06:34:42;;;;;;;;;;;;;;;;;;4890572;29;20603;-74
2022/08/09 06:37:10;;;;;;;;;;;;;;;;;;4891168;29;19996;-71
2022/08/09 06:39:37;;;;;;;;;;;;;;;;;;4896600;29;19963;-75
2022/08/09 06:42:15;;;;;;;;;;;;;;;;;;4895932;29;19967;-76
2022/08/09 06:44:42;;;;;;;;;;;;;;;;;;4890031;29;20027;-76
2022/08/09 06:47:10;;;;;;;;;;;;;;;;;;4893766;29;19932;-75
2022/08/09 06:49:37;;;;;;;;;;;;;;;;;;4896662;29;19987;-75
2022/08/09 06:52:24;;;;;;;;;;;;;;;;;;4891105;29;19979;-77
2022/08/09 06:54:52;;;;;;;;;;;;;;;;;;4891216;29;19931;-75
2022/08/09 06:57:20;;;;;;;;;;;;;;;;;;4898358;29;19969;-75
2022/08/09 07:00:07;;;;;;;;;;;;;;;;;;4896118;29;19931;-75
2022/08/09 07:02:55;;;;;;;;;;;;;;;;;;4894970;29;20054;-75
2022/08/09 07:05:23;;;;;;;;;;;;;;;;;;4894737;29;19928;-75
2022/08/09 07:07:54;;;;;;;;;;;;;;;;;;4896543;29;19927;-75
2022/08/09 07:10:41;;;;;;;;;;;;;;;;;;4870585;23;19935;-72
2022/08/09 07:13:08;;;;;;;;;;;;;;;;;;4864139;29;19928;-72
2022/08/09 07:15:44;;;;;;;;;;;;;;;;;;4871542;29;19967;-72
2022/08/09 07:18:32;;;;;;;;;;;;;;;;;;4866694;29;20539;-73
2022/08/09 07:20:59;;;;;;;;;;;;;;;;;;4860405;29;19969;-72
2022/08/09 07:23:26;;;;;;;;;;;;;;;;;;4865123;29;19928;-72
2022/08/09 07:25:54;;;;;;;;;;;;;;;;;;4869488;29;20386;-72
2022/08/09 07:28:28;;;;;;;;;;;;;;;;;;4863639;29;20303;-72
2022/08/09 07:30:55;;;;;;;;;;;;;;;;;;4873052;29;19935;-72
2022/08/09 07:33:23;;;;;;;;;;;;;;;;;;4869072;29;20364;-72
2022/08/09 07:35:50;;;;;;;;;;;;;;;;;;4868647;29;19939;-72
2022/08/09 07:38:19;;;;;;;;;;;;;;;;;;4869018;29;20026;-72
2022/08/09 07:40:47;;;;;;;;;;;;;;;;;;4870584;29;20308;-73
2022/08/09 07:43:34;;;;;;;;;;;;;;;;;;4867155;29;20424;-72
2022/08/09 07:46:07;;;;;;;;;;;;;;;;;;4870904;29;19942;-73
2022/08/09 07:48:34;;;;;;;;;;;;;;;;;;4864562;29;19931;-72
2022/08/09 07:51:02;;;;;;;;;;;;;;;;;;4857769;29;20160;-71
2022/08/09 07:53:49;;;;;;;;;;;;;;;;;;4877021;29;21222;-72
2022/08/09 07:56:32;;;;;;;;;;;;;;;;;;4862474;29;19932;-72
2022/08/09 07:58:59;;;;;;;;;;;;;;;;;;4866650;29;19999;-72
2022/08/09 08:01:27;;;;;;;;;;;;;;;;;;4862589;29;20357;-72
2022/08/09 08:03:59;;;;;;;;;;;;;;;;;;4862072;29;19992;-73
2022/08/09 08:06:26;;;;;;;;;;;;;;;;;;4857261;29;19935;-72
2022/08/09 08:08:58;;;;;;;;;;;;;;;;;;4863718;29;19946;-72
2022/08/09 08:11:30;;;;;;;;;;;;;;;;;;4864185;29;19939;-73
2022/08/09 08:14:17;;;;;;;;;;;;;;;;;;4869879;29;19932;-72
2022/08/09 08:16:44;;;;;;;;;;;;;;;;;;4862182;29;19932;-72
2022/08/09 08:19:27;;;;;;;;;;;;;;;;;;4879569;29;19932;-72
2022/08/09 08:21:57;;;;;;;;;;;;;;;;;;4862841;29;19971;-73
2022/08/09 08:24:24;;;;;;;;;;;;;;;;;;4862099;29;20420;-73
2022/08/09 08:27:01;;;;;;;;;;;;;;;;;;4872603;29;20441;-71
2022/08/09 08:29:29;;;;;;;;;;;;;;;;;;4870071;29;19931;-72
2022/08/09 08:32:05;;;;;;;;;;;;;;;;;;4858846;29;20672;-75
2022/08/09 08:34:32;;;;;;;;;;;;;;;;;;4858712;29;19932;-72
2022/08/09 08:37:00;;;;;;;;;;;;;;;;;;4866767;29;19938;-73
2022/08/09 08:39:28;;;;;;;;;;;;;;;;;;4864721;29;20286;-73
2022/08/09 08:41:55;;;;;;;;;;;;;;;;;;4871008;29;19971;-74
2022/08/09 08:44:25;;;;;;;;;;;;;;;;;;4870684;29;20312;-72
2022/08/09 08:46:56;;;;;;;;;;;;;;;;;;4868399;29;19931;-71
2022/08/09 08:49:28;;;;;;;;;;;;;;;;;;4865956;29;20034;-73
2022/08/09 08:51:59;;;;;;;;;;;;;;;;;;4865774;29;20699;-73
2022/08/09 08:54:30;;;;;;;;;;;;;;;;;;4865161;29;20038;-73
2022/08/09 08:56:57;;;;;;;;;;;;;;;;;;4868826;29;19932;-67
2022/08/09 08:59:24;;;;;;;;;;;;;;;;;;4864620;29;19932;-72
2022/08/09 09:01:54;;;;;;;;;;;;;;;;;;4866496;29;20026;-73
2022/08/09 09:04:25;;;;;;;;;;;;;;;;;;4864457;29;20320;-72
2022/08/09 09:06:53;;;;;;;;;;;;;;;;;;4860699;29;19928;-73
2022/08/09 09:09:20;;;;;;;;;;;;;;;;;;4860820;29;19935;-73
2022/08/09 09:12:07;;;;;;;;;;;;;;;;;;4867688;29;19932;-73
2022/08/09 09:14:38;;;;;;;;;;;;;;;;;;4863563;29;20035;-73
2022/08/09 09:17:05;;;;;;;;;;;;;;;;;;4883011;29;19928;-72
2022/08/09 09:19:33;;;;;;;;;;;;;;;;;;4869439;29;20030;-72
2022/08/09 09:22:08;;;;;;;;;;;;;;;;;;4870229;29;19971;-71
2022/08/09 09:24:38;;;;;;;;;;;;;;;;;;4868422;29;19931;-72
2022/08/09 09:27:06;;;;;;;;;;;;;;;;;;4866802;29;19986;-72
2022/08/09 09:29:34;;;;;;;;;;;;;;;;;;4866664;29;20015;-71
2022/08/09 09:32:21;;;;;;;;;;;;;;;;;;4865468;29;19939;-73
2022/08/09 09:35:00;;;;;;;;;;;;;;;;;;4868303;29;20421;-73
2022/08/09 09:37:28;;;;;;;;;;;;;;;;;;4867919;29;19928;-72
2022/08/09 09:39:58;;;;;;;;;;;;;;;;;;4868814;29;19934;-74
2022/08/09 09:42:26;;;;;;;;;;;;;;;;;;4869539;29;20353;-75
2022/08/09 09:44:53;;;;;;;;;;;;;;;;;;4865197;29;19932;-73
2022/08/09 09:47:21;;;;;;;;;;;;;;;;;;4863931;29;19935;-73
2022/08/09 09:49:48;;;;;;;;;;;;;;;;;;4864854;29;20399;-74
2022/08/09 09:52:22;;;;;;;;;;;;;;;;;;4867420;29;20641;-73
2022/08/09 09:55:03;;;;;;;;;;;;;;;;;;4864787;29;20023;-73
2022/08/09 09:57:43;;;;;;;;;;;;;;;;;;4864319;29;19971;-73
2022/08/09 10:00:28;;;;;;;;;;;;;;;;;;4861018;29;19931;-73
2022/08/09 10:02:55;;;;;;;;;;;;;;;;;;4872481;29;19939;-73
2022/08/09 10:05:23;;;;;;;;;;;;;;;;;;4870260;29;19974;-70
2022/08/09 10:08:10;;;;;;;;;;;;;;;;;;4864105;29;19936;-73
2022/08/09 10:10:54;;;;;;;;;;;;;;;;;;4872555;29;19932;-71
2022/08/09 10:13:21;;;;;;;;;;;;;;;;;;4866241;29;19931;-72
2022/08/09 10:15:50;;;;;;;;;;;;;;;;;;4865511;29;19935;-72
2022/08/09 10:18:37;;;;;;;;;;;;;;;;;;4862965;29;19959;-73
2022/08/09 10:21:05;;;;;;;;;;;;;;;;;;4866476;29;19947;-74
2022/08/09 10:23:32;;;;;;;;;;;;;;;;;;4862009;29;19935;-72
2022/08/09 10:26:03;;;;;;;;;;;;;;;;;;4867921;29;20316;-72
2022/08/09 10:28:34;;;;;;;;;;;;;;;;;;4862011;29;19938;-72
2022/08/09 10:31:02;;;;;;;;;;;;;;;;;;4867385;29;19939;-71
2022/08/09 10:33:49;;;;;;;;;;;;;;;;;;4870736;29;19933;-71
2022/08/09 10:36:35;;;;;;;;;;;;;;;;;;4869318;29;19931;-73
2022/08/09 10:39:02;;;;;;;;;;;;;;;;;;4869392;29;19932;-73
2022/08/09 10:41:29;;;;;;;;;;;;;;;;;;4869062;29;20315;-72
2022/08/09 10:43:57;;;;;;;;;;;;;;;;;;4870096;29;20459;-72
2022/08/09 10:46:28;;;;;;;;;;;;;;;;;;4871574;29;19948;-74
2022/08/09 10:48:55;;;;;;;;;;;;;;;;;;4887495;29;20330;-72
2022/08/09 10:51:22;;;;;;;;;;;;;;;;;;4871450;29;20388;-72
2022/08/09 10:53:56;;;;;;;;;;;;;;;;;;4871302;29;19932;-73
2022/08/09 10:56:23;;;;;;;;;;;;;;;;;;4874827;29;19940;-73
2022/08/09 10:58:51;;;;;;;;;;;;;;;;;;4872209;29;20396;-72
2022/08/09 11:01:20;;;;;;;;;;;;;;;;;;4873039;29;20360;-72
2022/08/09 11:04:07;;;;;;;;;;;;;;;;;;4868911;29;20476;-73
2022/08/09 11:06:53;;;;;;;;;;;;;;;;;;4868451;29;20292;-73
2022/08/09 11:09:21;;;;;;;;;;;;;;;;;;4872156;29;19932;-73
2022/08/09 11:11:48;;;;;;;;;;;;;;;;;;4870542;29;19935;-73
2022/08/09 11:14:18;;;;;;;;;;;;;;;;;;4869809;29;19932;-74
2022/08/09 11:16:46;;;;;;;;;;;;;;;;;;4870838;29;19943;-74
2022/08/09 11:19:14;;;;;;;;;;;;;;;;;;4871394;29;19928;-72
2022/08/09 11:21:41;;;;;;;;;;;;;;;;;;4872080;29;19939;-73
2022/08/09 11:24:09;;;;;;;;;;;;;;;;;;4872051;29;19932;-73
2022/08/09 11:26:36;;;;;;;;;;;;;;;;;;4870296;29;20407;-73
2022/08/09 11:29:03;;;;;;;;;;;;;;;;;;4866441;29;19979;-73
2022/08/09 11:31:31;;;;;;;;;;;;;;;;;;4877828;29;19928;-73
2022/08/09 11:34:00;;;;;;;;;;;;;;;;;;4871366;29;19932;-73
2022/08/09 11:36:28;;;;;;;;;;;;;;;;;;4869323;29;19931;-73
2022/08/09 11:39:01;;;;;;;;;;;;;;;;;;4867543;29;19983;-72
2022/08/09 11:41:29;;;;;;;;;;;;;;;;;;4869609;29;19927;-73
2022/08/09 11:44:03;;;;;;;;;;;;;;;;;;4877048;29;20397;-74
2022/08/09 11:46:31;;;;;;;;;;;;;;;;;;4866174;29;19984;-73
2022/08/09 11:48:59;;;;;;;;;;;;;;;;;;4866802;29;19970;-73
2022/08/09 11:51:26;;;;;;;;;;;;;;;;;;4869248;29;20050;-73
2022/08/09 11:54:14;;;;;;;;;;;;;;;;;;4865655;29;19932;-72
2022/08/09 11:56:54;;;;;;;;;;;;;;;;;;4875118;29;20323;-73
2022/08/09 11:59:21;;;;;;;;;;;;;;;;;;4873292;29;20441;-74
2022/08/09 12:01:49;;;;;;;;;;;;;;;;;;4882488;29;20217;-73
2022/08/09 12:04:36;;;;;;;;;;;;;;;;;;4872282;29;20061;-74
2022/08/09 12:07:04;;;;;;;;;;;;;;;;;;4871684;29;19935;-73
2022/08/09 12:09:34;;;;;;;;;;;;;;;;;;4871309;29;20412;-74
2022/08/09 12:12:04;;;;;;;;;;;;;;;;;;4866299;29;19939;-73
2022/08/09 12:14:32;;;;;;;;;;;;;;;;;;4872071;29;19955;-74
2022/08/09 12:17:07;;;;;;;;;;;;;;;;;;4869981;29;20150;-74
2022/08/09 12:19:54;;;;;;;;;;;;;;;;;;4873051;29;19936;-77
2022/08/09 12:22:25;;;;;;;;;;;;;;;;;;4871830;29;19938;-74
2022/08/09 12:24:53;;;;;;;;;;;;;;;;;;4875180;29;19941;-73
2022/08/09 12:27:20;;;;;;;;;;;;;;;;;;4890770;29;20018;-75
2022/08/09 12:30:08;;;;;;;;;;;;;;;;;;4890428;29;19931;-75
2022/08/09 12:32:55;;;;;;;;;;;;;;;;;;4890973;29;19931;-74
2022/08/09 12:35:23;;;;;;;;;;;;;;;;;;4891602;29;19928;-73
2022/08/09 12:37:50;;;;;;;;;;;;;;;;;;4885802;29;20299;-74
2022/08/09 12:40:20;;;;;;;;;;;;;;;;;;4871907;29;19947;-72
2022/08/09 12:42:49;;;;;;;;;;;;;;;;;;4866909;29;19930;-73
2022/08/09 12:45:17;;;;;;;;;;;;;;;;;;4870224;29;19954;-75
2022/08/09 12:47:59;;;;;;;;;;;;;;;;;;4871167;29;19959;-74
2022/08/09 12:50:26;;;;;;;;;;;;;;;;;;4866574;29;19932;-72
2022/08/09 12:52:53;;;;;;;;;;;;;;;;;;4868386;29;20026;-73
2022/08/09 12:55:35;;;;;;;;;;;;;;;;;;4869142;29;19932;-74
2022/08/09 12:58:23;;;;;;;;;;;;;;;;;;4865856;29;19947;-71
2022/08/09 13:00:54;;;;;;;;;;;;;;;;;;4871605;29;19970;-73
2022/08/09 13:03:21;;;;;;;;;;;;;;;;;;4862012;29;20705;-72
2022/08/09 13:05:54;;;;;;;;;;;;;;;;;;4862443;29;19931;-73
2022/08/09 13:08:40;;;;;;;;;;;;;;;;;;4872369;29;20320;-72
2022/08/09 13:11:10;;;;;;;;;;;;;;;;;;4892623;23;19931;-71
2022/08/09 13:13:49;;;;;;;;;;;;;;;;;;4875127;29;20317;-71
2022/08/09 13:16:36;;;;;;;;;;;;;;;;;;4877799;29;20047;-71
2022/08/09 13:19:03;;;;;;;;;;;;;;;;;;4877593;29;20399;-70
2022/08/09 13:21:31;;;;;;;;;;;;;;;;;;4878220;29;20319;-70
2022/08/09 13:24:18;;;;;;;;;;;;;;;;;;4883429;29;20372;-70
2022/08/09 13:27:05;;;;;;;;;;;;;;;;;;4881039;29;20372;-70
2022/08/09 13:29:34;;;;;;;;;;;;;;;;;;4885826;29;20696;-70
2022/08/09 13:32:22;;;;;;;;;;;;;;;;;;4887458;29;19938;-70
2022/08/09 13:34:53;;;;;;;;;;;;;;;;;;4875735;29;19980;-71
2022/08/09 13:37:21;;;;;;;;;;;;;;;;;;4891069;29;19954;-70
2022/08/09 13:40:08;;;;;;;;;;;;;;;;;;4892497;29;19979;-70
2022/08/09 13:42:55;;;;;;;;;;;;;;;;;;4883198;29;20254;-70
2022/08/09 13:45:23;;;;;;;;;;;;;;;;;;4883982;29;19936;-70
2022/08/09 13:47:58;;;;;;;;;;;;;;;;;;4875484;29;20030;-70
2022/08/09 13:50:26;;;;;;;;;;;;;;;;;;4877437;29;19934;-70
2022/08/09 13:52:56;;;;;;;;;;;;;;;;;;4866786;29;19939;-70
2022/08/09 13:55:24;;;;;;;;;;;;;;;;;;4885654;29;20349;-71
2022/08/09 13:57:55;;;;;;;;;;;;;;;;;;4880366;29;20041;-68
2022/08/09 14:00:24;;;;;;;;;;;;;;;;;;4882835;29;19933;-70
2022/08/09 14:02:53;;;;;;;;;;;;;;;;;;4880412;29;19932;-71
2022/08/09 14:05:40;;;;;;;;;;;;;;;;;;4879839;29;19934;-70
2022/08/09 14:08:26;;;;;;;;;;;;;;;;;;4885113;29;19962;-70
2022/08/09 14:10:54;;;;;;;;;;;;;;;;;;4890802;29;19931;-70
2022/08/09 14:13:21;;;;;;;;;;;;;;;;;;4880307;29;19982;-70
2022/08/09 14:16:11;;;;;;;;;;;;;;;;;;4877096;29;19935;-69
2022/08/09 14:18:40;;;;;;;;;;;;;;;;;;4884348;29;19979;-69
2022/08/09 14:21:16;;;;;;;;;;;;;;;;;;4881079;29;19938;-70
2022/08/09 14:23:43;;;;;;;;;;;;;;;;;;4888613;29;20038;-69
2022/08/09 14:26:22;;;;;;;;;;;;;;;;;;4893456;29;20295;-69
2022/08/09 14:28:50;;;;;;;;;;;;;;;;;;4884140;29;19974;-69
2022/08/09 14:31:17;;;;;;;;;;;;;;;;;;4891991;29;19931;-70
2022/08/09 14:33:44;;;;;;;;;;;;;;;;;;4882331;29;20303;-69
2022/08/09 14:36:12;;;;;;;;;;;;;;;;;;4883624;29;19931;-70
2022/08/09 14:38:47;;;;;;;;;;;;;;;;;;4884795;29;19931;-69
2022/08/09 14:41:19;;;;;;;;;;;;;;;;;;4891206;29;19931;-70
2022/08/09 14:43:50;;;;;;;;;;;;;;;;;;4884387;29;19935;-70
2022/08/09 14:46:19;;;;;;;;;;;;;;;;;;4876201;29;20063;-71
2022/08/09 14:49:07;;;;;;;;;;;;;;;;;;4880499;29;20011;-70
2022/08/09 14:51:36;;;;;;;;;;;;;;;;;;4888406;29;20414;-71
2022/08/09 14:54:08;;;;;;;;;;;;;;;;;;4884977;29;20356;-71
2022/08/09 14:56:35;;;;;;;;;;;;;;;;;;4882269;29;19932;-71
2022/08/09 14:59:19;;;;;;;;;;;;;;;;;;4885252;29;20315;-71
2022/08/09 15:01:47;;;;;;;;;;;;;;;;;;4891901;29;20470;-71
2022/08/09 15:04:14;;;;;;;;;;;;;;;;;;4876495;29;19928;-70
2022/08/09 15:06:41;;;;;;;;;;;;;;;;;;4887209;29;20434;-71
2022/08/09 15:09:09;;;;;;;;;;;;;;;;;;4885586;29;19991;-70
2022/08/09 15:11:36;;;;;;;;;;;;;;;;;;4888484;29;19935;-70
2022/08/09 15:14:03;;;;;;;;;;;;;;;;;;4881906;29;19934;-70
2022/08/09 15:16:39;;;;;;;;;;;;;;;;;;4884569;29;20370;-70
2022/08/09 15:19:07;;;;;;;;;;;;;;;;;;4882404;29;20023;-70
2022/08/09 15:21:44;;;;;;;;;;;;;;;;;;4880046;29;19936;-70
2022/08/09 15:24:27;;;;;;;;;;;;;;;;;;4878338;29;20469;-70
2022/08/09 15:26:54;;;;;;;;;;;;;;;;;;4884388;29;19932;-70
2022/08/09 15:29:22;;;;;;;;;;;;;;;;;;4885954;29;19936;-70
2022/08/09 15:32:09;;;;;;;;;;;;;;;;;;4881953;29;19932;-70
2022/08/09 15:34:58;;;;;;;;;;;;;;;;;;4880659;29;19932;-70
2022/08/09 15:37:35;;;;;;;;;;;;;;;;;;4885527;29;19934;-70
2022/08/09 15:40:22;;;;;;;;;;;;;;;;;;4882908;29;19935;-70
2022/08/09 15:42:51;;;;;;;;;;;;;;;;;;4887550;29;20027;-70
2022/08/09 15:45:18;;;;;;;;;;;;;;;;;;4885174;29;20319;-70
2022/08/09 15:47:47;;;;;;;;;;;;;;;;;;4886305;29;19931;-69
2022/08/09 15:50:29;;;;;;;;;;;;;;;;;;4884840;29;20452;-70
2022/08/09 15:52:56;;;;;;;;;;;;;;;;;;4882441;29;19934;-70
2022/08/09 15:55:33;;;;;;;;;;;;;;;;;;4880574;29;19937;-70
2022/08/09 15:58:20;;;;;;;;;;;;;;;;;;4888195;29;20026;-70
2022/08/09 16:00:53;;;;;;;;;;;;;;;;;;4885648;29;20019;-70
2022/08/09 16:03:22;;;;;;;;;;;;;;;;;;4881617;29;20030;-70
2022/08/09 16:05:55;;;;;;;;;;;;;;;;;;4890492;29;20191;-69
2022/08/09 16:08:27;;;;;;;;;;;;;;;;;;4889485;29;20322;-70
2022/08/09 16:10:57;;;;;;;;;;;;;;;;;;4883139;29;19927;-69
2022/08/09 16:13:24;;;;;;;;;;;;;;;;;;4886113;29;19932;-70
2022/08/09 16:16:11;;;;;;;;;;;;;;;;;;4885006;29;19927;-70
2022/08/09 16:18:43;;;;;;;;;;;;;;;;;;4889105;29;19927;-70
2022/08/09 16:21:11;;;;;;;;;;;;;;;;;;4891598;29;20504;-70
2022/08/09 16:23:44;;;;;;;;;;;;;;;;;;4891437;29;19927;-70
2022/08/09 16:26:21;;;;;;;;;;;;;;;;;;4890403;29;19931;-70
2022/08/09 16:29:00;;;;;;;;;;;;;;;;;;4891736;29;20396;-70
2022/08/09 16:31:27;;;;;;;;;;;;;;;;;;4882628;29;19931;-70
2022/08/09 16:34:04;;;;;;;;;;;;;;;;;;4881212;29;19928;-70
2022/08/09 16:36:31;;;;;;;;;;;;;;;;;;4882857;29;19932;-70
2022/08/09 16:38:58;;;;;;;;;;;;;;;;;;4888088;29;20034;-70
2022/08/09 16:41:26;;;;;;;;;;;;;;;;;;4888293;29;19932;-70
2022/08/09 16:44:13;;;;;;;;;;;;;;;;;;4888455;29;20313;-70
2022/08/09 16:46:41;;;;;;;;;;;;;;;;;;4885478;29;19932;-70
2022/08/09 16:49:21;;;;;;;;;;;;;;;;;;4890119;29;19987;-69
2022/08/09 16:52:08;;;;;;;;;;;;;;;;;;4890699;29;20448;-70
2022/08/09 16:54:36;;;;;;;;;;;;;;;;;;4891083;29;19939;-69
2022/08/09 16:57:03;;;;;;;;;;;;;;;;;;4890620;29;19978;-69
2022/08/09 16:59:30;;;;;;;;;;;;;;;;;;4891420;29;19931;-69
2022/08/09 17:02:01;;;;;;;;;;;;;;;;;;4890256;29;19938;-70
2022/08/09 17:04:28;;;;;;;;;;;;;;;;;;4890743;29;19951;-69
2022/08/09 17:06:57;;;;;;;;;;;;;;;;;;4892311;29;20243;-68
2022/08/09 17:09:44;;;;;;;;;;;;;;;;;;4890769;29;20034;-69
2022/08/09 17:12:13;;;;;;;;;;;;;;;;;;4890626;29;19942;-70
2022/08/09 17:14:40;;;;;;;;;;;;;;;;;;4891055;29;20026;-70
2022/08/09 17:17:12;;;;;;;;;;;;;;;;;;4890506;29;19931;-70
2022/08/09 17:19:52;;;;;;;;;;;;;;;;;;4891054;29;19983;-70